sensor_id;sensor_type;location;lat;lon;timestamp;P1;durP1;ratioP1;P2;durP2;ratioP2
35150;SDS011;55720;51.972;4.624;2023-06-22T00:01:27;32.88;;;17.27;;
35150;SDS011;55720;51.972;4.624;2023-06-22T00:03:52;32.55;;;16.83;;
35150;SDS011;55720;51.972;4.624;2023-06-22T00:06:17;29.30;;;17.05;;
35150;SDS011;55720;51.972;4.624;2023-06-22T00:08:43;33.50;;;17.70;;
35150;SDS011;55720;51.972;4.624;2023-06-22T00:11:08;30.17;;;17.10;;
35150;SDS011;55720;51.972;4.624;2023-06-22T00:13:34;31.13;;;17.63;;
35150;SDS011;55720;51.972;4.624;2023-06-22T00:15:59;31.73;;;17.33;;
35150;SDS011;55720;51.972;4.624;2023-06-22T00:18:25;34.40;;;17.17;;
35150;SDS011;55720;51.972;4.624;2023-06-22T00:20:53;37.15;;;17.40;;
35150;SDS011;55720;51.972;4.624;2023-06-22T00:23:22;32.50;;;18.10;;
35150;SDS011;55720;51.972;4.624;2023-06-22T00:25:48;39.55;;;17.85;;
35150;SDS011;55720;51.972;4.624;2023-06-22T00:28:14;35.58;;;18.42;;
35150;SDS011;55720;51.972;4.624;2023-06-22T00:30:40;36.40;;;18.35;;
35150;SDS011;55720;51.972;4.624;2023-06-22T00:33:06;43.65;;;21.58;;
35150;SDS011;55720;51.972;4.624;2023-06-22T00:35:32;41.42;;;21.02;;
35150;SDS011;55720;51.972;4.624;2023-06-22T00:37:58;41.42;;;20.98;;
35150;SDS011;55720;51.972;4.624;2023-06-22T00:40:30;42.75;;;20.95;;
35150;SDS011;55720;51.972;4.624;2023-06-22T00:42:56;42.10;;;21.60;;
35150;SDS011;55720;51.972;4.624;2023-06-22T00:45:22;39.88;;;20.67;;
35150;SDS011;55720;51.972;4.624;2023-06-22T00:47:51;39.72;;;21.10;;
35150;SDS011;55720;51.972;4.624;2023-06-22T00:50:18;40.30;;;20.70;;
35150;SDS011;55720;51.972;4.624;2023-06-22T00:52:48;37.35;;;19.38;;
35150;SDS011;55720;51.972;4.624;2023-06-22T00:55:16;28.05;;;14.63;;
35150;SDS011;55720;51.972;4.624;2023-06-22T00:57:43;39.28;;;21.45;;
35150;SDS011;55720;51.972;4.624;2023-06-22T01:00:11;38.03;;;20.90;;
35150;SDS011;55720;51.972;4.624;2023-06-22T01:02:44;40.42;;;20.55;;
35150;SDS011;55720;51.972;4.624;2023-06-22T01:05:14;39.60;;;20.13;;
35150;SDS011;55720;51.972;4.624;2023-06-22T01:07:42;44.83;;;21.45;;
35150;SDS011;55720;51.972;4.624;2023-06-22T01:12:55;37.55;;;20.83;;
35150;SDS011;55720;51.972;4.624;2023-06-22T01:15:33;42.88;;;21.77;;
35150;SDS011;55720;51.972;4.624;2023-06-22T01:18:07;40.88;;;20.15;;
35150;SDS011;55720;51.972;4.624;2023-06-22T01:20:34;43.65;;;21.88;;
35150;SDS011;55720;51.972;4.624;2023-06-22T01:23:10;45.15;;;22.25;;
35150;SDS011;55720;51.972;4.624;2023-06-22T01:29:07;41.53;;;21.15;;
35150;SDS011;55720;51.972;4.624;2023-06-22T01:31:37;43.30;;;23.17;;
35150;SDS011;55720;51.972;4.624;2023-06-22T01:34:05;44.53;;;22.65;;
35150;SDS011;55720;51.972;4.624;2023-06-22T01:36:32;48.38;;;22.67;;
35150;SDS011;55720;51.972;4.624;2023-06-22T01:38:58;46.65;;;21.92;;
35150;SDS011;55720;51.972;4.624;2023-06-22T01:41:26;46.70;;;23.48;;
35150;SDS011;55720;51.972;4.624;2023-06-22T01:43:54;44.42;;;22.75;;
35150;SDS011;55720;51.972;4.624;2023-06-22T01:46:20;46.30;;;22.92;;
35150;SDS011;55720;51.972;4.624;2023-06-22T01:48:47;56.25;;;25.40;;
35150;SDS011;55720;51.972;4.624;2023-06-22T01:51:12;46.45;;;23.42;;
35150;SDS011;55720;51.972;4.624;2023-06-22T01:53:38;45.35;;;23.23;;
35150;SDS011;55720;51.972;4.624;2023-06-22T01:56:04;53.00;;;24.60;;
35150;SDS011;55720;51.972;4.624;2023-06-22T01:58:29;47.45;;;23.30;;
35150;SDS011;55720;51.972;4.624;2023-06-22T02:00:58;48.60;;;23.00;;
35150;SDS011;55720;51.972;4.624;2023-06-22T02:03:30;45.05;;;22.77;;
35150;SDS011;55720;51.972;4.624;2023-06-22T02:06:03;48.58;;;23.35;;
35150;SDS011;55720;51.972;4.624;2023-06-22T02:08:41;47.78;;;23.65;;
35150;SDS011;55720;51.972;4.624;2023-06-22T02:11:12;44.45;;;21.83;;
35150;SDS011;55720;51.972;4.624;2023-06-22T02:13:40;44.50;;;22.05;;
35150;SDS011;55720;51.972;4.624;2023-06-22T02:16:08;46.13;;;23.70;;
35150;SDS011;55720;51.972;4.624;2023-06-22T02:18:35;43.30;;;22.08;;
35150;SDS011;55720;51.972;4.624;2023-06-22T02:21:01;43.25;;;23.50;;
35150;SDS011;55720;51.972;4.624;2023-06-22T02:23:26;44.33;;;23.60;;
35150;SDS011;55720;51.972;4.624;2023-06-22T02:25:52;51.17;;;24.40;;
35150;SDS011;55720;51.972;4.624;2023-06-22T02:28:17;57.63;;;25.90;;
35150;SDS011;55720;51.972;4.624;2023-06-22T02:30:42;53.40;;;25.42;;
35150;SDS011;55720;51.972;4.624;2023-06-22T02:33:08;56.90;;;27.63;;
35150;SDS011;55720;51.972;4.624;2023-06-22T02:35:33;58.20;;;28.33;;
35150;SDS011;55720;51.972;4.624;2023-06-22T02:38:00;61.63;;;27.38;;
35150;SDS011;55720;51.972;4.624;2023-06-22T02:40:27;52.88;;;26.15;;
35150;SDS011;55720;51.972;4.624;2023-06-22T02:42:54;56.92;;;26.13;;
35150;SDS011;55720;51.972;4.624;2023-06-22T02:45:20;49.45;;;25.33;;
35150;SDS011;55720;51.972;4.624;2023-06-22T02:47:45;53.42;;;25.75;;
35150;SDS011;55720;51.972;4.624;2023-06-22T02:50:12;46.78;;;23.80;;
35150;SDS011;55720;51.972;4.624;2023-06-22T02:52:38;46.45;;;23.80;;
35150;SDS011;55720;51.972;4.624;2023-06-22T02:55:04;49.55;;;24.23;;
35150;SDS011;55720;51.972;4.624;2023-06-22T02:57:30;55.28;;;25.92;;
35150;SDS011;55720;51.972;4.624;2023-06-22T02:59:56;45.97;;;24.20;;
35150;SDS011;55720;51.972;4.624;2023-06-22T03:02:21;54.15;;;25.27;;
35150;SDS011;55720;51.972;4.624;2023-06-22T03:04:47;55.45;;;24.88;;
35150;SDS011;55720;51.972;4.624;2023-06-22T03:07:14;53.67;;;25.85;;
35150;SDS011;55720;51.972;4.624;2023-06-22T03:09:39;51.67;;;25.50;;
35150;SDS011;55720;51.972;4.624;2023-06-22T03:12:07;58.38;;;26.92;;
35150;SDS011;55720;51.972;4.624;2023-06-22T03:14:32;57.30;;;26.95;;
35150;SDS011;55720;51.972;4.624;2023-06-22T03:16:58;50.50;;;24.73;;
35150;SDS011;55720;51.972;4.624;2023-06-22T03:19:28;54.08;;;25.23;;
35150;SDS011;55720;51.972;4.624;2023-06-22T03:21:54;53.13;;;25.17;;
35150;SDS011;55720;51.972;4.624;2023-06-22T03:24:20;62.60;;;26.52;;
35150;SDS011;55720;51.972;4.624;2023-06-22T03:26:45;57.33;;;27.52;;
35150;SDS011;55720;51.972;4.624;2023-06-22T03:29:11;58.33;;;28.20;;
35150;SDS011;55720;51.972;4.624;2023-06-22T03:31:37;64.90;;;28.05;;
35150;SDS011;55720;51.972;4.624;2023-06-22T03:34:03;63.30;;;28.83;;
35150;SDS011;55720;51.972;4.624;2023-06-22T03:36:28;66.75;;;28.83;;
35150;SDS011;55720;51.972;4.624;2023-06-22T03:38:53;58.47;;;26.88;;
35150;SDS011;55720;51.972;4.624;2023-06-22T03:44:40;58.88;;;26.33;;
35150;SDS011;55720;51.972;4.624;2023-06-22T03:47:06;58.50;;;27.45;;
35150;SDS011;55720;51.972;4.624;2023-06-22T03:49:32;55.60;;;26.83;;
35150;SDS011;55720;51.972;4.624;2023-06-22T03:51:59;63.03;;;28.10;;
35150;SDS011;55720;51.972;4.624;2023-06-22T03:54:25;56.42;;;26.45;;
35150;SDS011;55720;51.972;4.624;2023-06-22T03:56:51;51.00;;;24.95;;
35150;SDS011;55720;51.972;4.624;2023-06-22T03:59:16;60.72;;;27.58;;
35150;SDS011;55720;51.972;4.624;2023-06-22T04:01:41;49.97;;;25.75;;
35150;SDS011;55720;51.972;4.624;2023-06-22T04:04:07;52.25;;;25.23;;
35150;SDS011;55720;51.972;4.624;2023-06-22T04:06:32;60.20;;;27.25;;
35150;SDS011;55720;51.972;4.624;2023-06-22T04:08:58;53.22;;;27.33;;
35150;SDS011;55720;51.972;4.624;2023-06-22T04:11:25;49.83;;;25.45;;
35150;SDS011;55720;51.972;4.624;2023-06-22T04:13:50;48.78;;;25.10;;
35150;SDS011;55720;51.972;4.624;2023-06-22T04:16:16;48.58;;;24.30;;
35150;SDS011;55720;51.972;4.624;2023-06-22T04:18:41;40.92;;;22.75;;
35150;SDS011;55720;51.972;4.624;2023-06-22T04:21:07;40.17;;;21.48;;
35150;SDS011;55720;51.972;4.624;2023-06-22T04:23:32;43.40;;;22.60;;
35150;SDS011;55720;51.972;4.624;2023-06-22T04:25:57;38.38;;;22.05;;
35150;SDS011;55720;51.972;4.624;2023-06-22T04:28:24;37.25;;;22.30;;
35150;SDS011;55720;51.972;4.624;2023-06-22T04:30:49;34.00;;;21.48;;
35150;SDS011;55720;51.972;4.624;2023-06-22T04:33:16;30.65;;;18.63;;
35150;SDS011;55720;51.972;4.624;2023-06-22T04:35:42;31.13;;;18.10;;
35150;SDS011;55720;51.972;4.624;2023-06-22T04:38:11;27.17;;;16.80;;
35150;SDS011;55720;51.972;4.624;2023-06-22T04:40:38;25.45;;;15.82;;
35150;SDS011;55720;51.972;4.624;2023-06-22T04:43:04;22.08;;;16.05;;
35150;SDS011;55720;51.972;4.624;2023-06-22T04:45:31;23.60;;;16.45;;
35150;SDS011;55720;51.972;4.624;2023-06-22T04:47:57;28.05;;;14.68;;
35150;SDS011;55720;51.972;4.624;2023-06-22T04:50:23;23.25;;;14.85;;
35150;SDS011;55720;51.972;4.624;2023-06-22T04:52:48;22.25;;;15.30;;
35150;SDS011;55720;51.972;4.624;2023-06-22T04:55:15;23.65;;;16.58;;
35150;SDS011;55720;51.972;4.624;2023-06-22T04:57:47;25.33;;;14.88;;
35150;SDS011;55720;51.972;4.624;2023-06-22T05:00:17;26.20;;;14.75;;
35150;SDS011;55720;51.972;4.624;2023-06-22T05:02:44;23.48;;;16.42;;
35150;SDS011;55720;51.972;4.624;2023-06-22T05:05:11;24.23;;;15.65;;
35150;SDS011;55720;51.972;4.624;2023-06-22T05:07:41;29.03;;;17.27;;
35150;SDS011;55720;51.972;4.624;2023-06-22T05:10:08;25.88;;;15.68;;
35150;SDS011;55720;51.972;4.624;2023-06-22T05:12:36;25.52;;;16.02;;
35150;SDS011;55720;51.972;4.624;2023-06-22T05:15:01;22.65;;;14.80;;
35150;SDS011;55720;51.972;4.624;2023-06-22T05:17:27;21.17;;;14.82;;
35150;SDS011;55720;51.972;4.624;2023-06-22T05:19:53;21.92;;;14.75;;
35150;SDS011;55720;51.972;4.624;2023-06-22T05:22:18;22.48;;;14.25;;
35150;SDS011;55720;51.972;4.624;2023-06-22T05:24:44;20.52;;;14.18;;
35150;SDS011;55720;51.972;4.624;2023-06-22T05:27:10;20.75;;;13.10;;
35150;SDS011;55720;51.972;4.624;2023-06-22T05:29:38;16.08;;;13.38;;
35150;SDS011;55720;51.972;4.624;2023-06-22T05:32:04;17.60;;;13.88;;
35150;SDS011;55720;51.972;4.624;2023-06-22T05:34:30;17.45;;;12.60;;
35150;SDS011;55720;51.972;4.624;2023-06-22T05:36:56;15.55;;;12.48;;
35150;SDS011;55720;51.972;4.624;2023-06-22T05:39:23;18.67;;;13.20;;
35150;SDS011;55720;51.972;4.624;2023-06-22T05:41:50;17.30;;;12.38;;
35150;SDS011;55720;51.972;4.624;2023-06-22T05:44:15;19.00;;;12.50;;
35150;SDS011;55720;51.972;4.624;2023-06-22T05:46:42;16.92;;;12.10;;
35150;SDS011;55720;51.972;4.624;2023-06-22T05:49:09;16.23;;;12.00;;
35150;SDS011;55720;51.972;4.624;2023-06-22T05:51:35;18.10;;;11.85;;
35150;SDS011;55720;51.972;4.624;2023-06-22T05:54:00;16.42;;;12.18;;
35150;SDS011;55720;51.972;4.624;2023-06-22T05:56:26;18.98;;;12.40;;
35150;SDS011;55720;51.972;4.624;2023-06-22T05:58:51;19.85;;;11.98;;
35150;SDS011;55720;51.972;4.624;2023-06-22T06:01:17;15.20;;;11.77;;
35150;SDS011;55720;51.972;4.624;2023-06-22T06:03:42;14.95;;;10.93;;
35150;SDS011;55720;51.972;4.624;2023-06-22T06:06:07;14.25;;;11.27;;
35150;SDS011;55720;51.972;4.624;2023-06-22T06:08:33;15.10;;;10.82;;
35150;SDS011;55720;51.972;4.624;2023-06-22T06:10:58;11.35;;;9.55;;
35150;SDS011;55720;51.972;4.624;2023-06-22T06:13:23;13.35;;;10.48;;
35150;SDS011;55720;51.972;4.624;2023-06-22T06:15:49;11.45;;;9.80;;
35150;SDS011;55720;51.972;4.624;2023-06-22T06:18:16;13.48;;;9.48;;
35150;SDS011;55720;51.972;4.624;2023-06-22T06:20:42;10.20;;;8.48;;
35150;SDS011;55720;51.972;4.624;2023-06-22T06:23:07;11.93;;;9.02;;
35150;SDS011;55720;51.972;4.624;2023-06-22T06:25:33;11.13;;;8.88;;
35150;SDS011;55720;51.972;4.624;2023-06-22T06:27:58;10.85;;;8.65;;
35150;SDS011;55720;51.972;4.624;2023-06-22T06:30:23;10.25;;;9.20;;
35150;SDS011;55720;51.972;4.624;2023-06-22T06:32:49;11.55;;;8.98;;
35150;SDS011;55720;51.972;4.624;2023-06-22T06:35:15;13.85;;;9.35;;
35150;SDS011;55720;51.972;4.624;2023-06-22T06:37:42;10.55;;;8.32;;
35150;SDS011;55720;51.972;4.624;2023-06-22T06:40:09;10.40;;;8.88;;
35150;SDS011;55720;51.972;4.624;2023-06-22T06:42:39;12.70;;;9.32;;
35150;SDS011;55720;51.972;4.624;2023-06-22T06:45:15;15.95;;;8.73;;
35150;SDS011;55720;51.972;4.624;2023-06-22T06:47:41;15.02;;;9.02;;
35150;SDS011;55720;51.972;4.624;2023-06-22T06:50:07;12.57;;;9.02;;
35150;SDS011;55720;51.972;4.624;2023-06-22T06:52:33;13.43;;;9.15;;
35150;SDS011;55720;51.972;4.624;2023-06-22T06:54:58;16.00;;;8.98;;
35150;SDS011;55720;51.972;4.624;2023-06-22T06:57:24;10.57;;;8.65;;
35150;SDS011;55720;51.972;4.624;2023-06-22T06:59:54;11.13;;;8.30;;
35150;SDS011;55720;51.972;4.624;2023-06-22T07:02:21;12.43;;;8.68;;
35150;SDS011;55720;51.972;4.624;2023-06-22T07:04:46;13.30;;;7.90;;
35150;SDS011;55720;51.972;4.624;2023-06-22T07:07:12;9.27;;;7.68;;
35150;SDS011;55720;51.972;4.624;2023-06-22T07:09:37;9.63;;;7.53;;
35150;SDS011;55720;51.972;4.624;2023-06-22T07:12:03;8.43;;;7.15;;
35150;SDS011;55720;51.972;4.624;2023-06-22T07:14:29;8.60;;;7.38;;
35150;SDS011;55720;51.972;4.624;2023-06-22T07:16:54;8.13;;;6.22;;
35150;SDS011;55720;51.972;4.624;2023-06-22T07:19:26;7.05;;;6.32;;
35150;SDS011;55720;51.972;4.624;2023-06-22T07:21:53;8.35;;;6.10;;
35150;SDS011;55720;51.972;4.624;2023-06-22T07:24:19;7.63;;;5.70;;
35150;SDS011;55720;51.972;4.624;2023-06-22T07:26:46;5.97;;;5.45;;
35150;SDS011;55720;51.972;4.624;2023-06-22T07:29:13;7.32;;;5.95;;
35150;SDS011;55720;51.972;4.624;2023-06-22T07:31:39;4.93;;;4.45;;
35150;SDS011;55720;51.972;4.624;2023-06-22T07:34:06;6.10;;;4.57;;
35150;SDS011;55720;51.972;4.624;2023-06-22T07:36:31;7.75;;;5.55;;
35150;SDS011;55720;51.972;4.624;2023-06-22T07:38:56;6.43;;;5.82;;
35150;SDS011;55720;51.972;4.624;2023-06-22T07:41:22;5.65;;;5.10;;
35150;SDS011;55720;51.972;4.624;2023-06-22T07:43:47;6.20;;;5.55;;
35150;SDS011;55720;51.972;4.624;2023-06-22T07:46:13;7.35;;;4.93;;
35150;SDS011;55720;51.972;4.624;2023-06-22T07:48:38;5.90;;;5.40;;
35150;SDS011;55720;51.972;4.624;2023-06-22T07:51:04;5.50;;;5.00;;
35150;SDS011;55720;51.972;4.624;2023-06-22T07:53:31;4.85;;;4.00;;
35150;SDS011;55720;51.972;4.624;2023-06-22T07:55:56;6.35;;;4.60;;
35150;SDS011;55720;51.972;4.624;2023-06-22T07:58:22;5.78;;;5.28;;
35150;SDS011;55720;51.972;4.624;2023-06-22T08:00:47;3.25;;;2.75;;
35150;SDS011;55720;51.972;4.624;2023-06-22T08:03:14;3.20;;;2.20;;
35150;SDS011;55720;51.972;4.624;2023-06-22T08:05:40;3.45;;;2.15;;
35150;SDS011;55720;51.972;4.624;2023-06-22T08:08:05;3.38;;;2.67;;
35150;SDS011;55720;51.972;4.624;2023-06-22T08:10:30;4.10;;;3.80;;
35150;SDS011;55720;51.972;4.624;2023-06-22T08:12:55;4.53;;;3.60;;
35150;SDS011;55720;51.972;4.624;2023-06-22T08:15:21;4.57;;;4.18;;
35150;SDS011;55720;51.972;4.624;2023-06-22T08:17:47;6.25;;;5.22;;
35150;SDS011;55720;51.972;4.624;2023-06-22T08:20:13;6.38;;;5.78;;
35150;SDS011;55720;51.972;4.624;2023-06-22T08:22:42;8.25;;;7.10;;
35150;SDS011;55720;51.972;4.624;2023-06-22T08:25:08;9.30;;;6.75;;
35150;SDS011;55720;51.972;4.624;2023-06-22T08:27:34;9.90;;;7.78;;
35150;SDS011;55720;51.972;4.624;2023-06-22T08:30:00;7.93;;;7.13;;
35150;SDS011;55720;51.972;4.624;2023-06-22T08:32:29;8.75;;;7.78;;
35150;SDS011;55720;51.972;4.624;2023-06-22T08:34:57;11.43;;;9.43;;
35150;SDS011;55720;51.972;4.624;2023-06-22T08:37:23;14.75;;;9.77;;
35150;SDS011;55720;51.972;4.624;2023-06-22T08:39:56;12.20;;;10.18;;
35150;SDS011;55720;51.972;4.624;2023-06-22T08:42:24;16.02;;;10.00;;
35150;SDS011;55720;51.972;4.624;2023-06-22T08:44:50;14.50;;;10.25;;
35150;SDS011;55720;51.972;4.624;2023-06-22T08:47:16;12.73;;;10.35;;
35150;SDS011;55720;51.972;4.624;2023-06-22T08:49:41;12.27;;;10.98;;
35150;SDS011;55720;51.972;4.624;2023-06-22T08:52:07;17.63;;;12.18;;
35150;SDS011;55720;51.972;4.624;2023-06-22T08:54:32;16.65;;;12.30;;
35150;SDS011;55720;51.972;4.624;2023-06-22T08:56:59;16.30;;;12.43;;
35150;SDS011;55720;51.972;4.624;2023-06-22T08:59:25;18.02;;;12.63;;
35150;SDS011;55720;51.972;4.624;2023-06-22T09:01:50;15.15;;;12.15;;
35150;SDS011;55720;51.972;4.624;2023-06-22T09:04:16;17.80;;;12.00;;
35150;SDS011;55720;51.972;4.624;2023-06-22T09:06:41;12.77;;;11.45;;
35150;SDS011;55720;51.972;4.624;2023-06-22T09:09:12;16.23;;;12.60;;
35150;SDS011;55720;51.972;4.624;2023-06-22T09:11:38;18.30;;;11.88;;
35150;SDS011;55720;51.972;4.624;2023-06-22T09:14:04;19.08;;;11.02;;
35150;SDS011;55720;51.972;4.624;2023-06-22T09:16:29;13.68;;;10.95;;
35150;SDS011;55720;51.972;4.624;2023-06-22T09:18:55;18.58;;;12.57;;
35150;SDS011;55720;51.972;4.624;2023-06-22T09:21:20;17.58;;;11.25;;
35150;SDS011;55720;51.972;4.624;2023-06-22T09:23:46;14.43;;;10.57;;
35150;SDS011;55720;51.972;4.624;2023-06-22T09:26:15;13.43;;;10.68;;
35150;SDS011;55720;51.972;4.624;2023-06-22T09:28:40;12.15;;;9.95;;
35150;SDS011;55720;51.972;4.624;2023-06-22T09:31:06;13.57;;;9.57;;
35150;SDS011;55720;51.972;4.624;2023-06-22T09:33:32;10.52;;;9.05;;
35150;SDS011;55720;51.972;4.624;2023-06-22T09:35:57;11.73;;;9.75;;
35150;SDS011;55720;51.972;4.624;2023-06-22T09:38:22;10.88;;;8.88;;
35150;SDS011;55720;51.972;4.624;2023-06-22T09:40:48;13.32;;;9.13;;
35150;SDS011;55720;51.972;4.624;2023-06-22T09:43:13;13.40;;;9.93;;
35150;SDS011;55720;51.972;4.624;2023-06-22T09:45:39;13.25;;;10.05;;
35150;SDS011;55720;51.972;4.624;2023-06-22T09:48:04;12.98;;;8.85;;
35150;SDS011;55720;51.972;4.624;2023-06-22T09:50:30;11.90;;;9.15;;
35150;SDS011;55720;51.972;4.624;2023-06-22T09:52:55;10.88;;;7.60;;
35150;SDS011;55720;51.972;4.624;2023-06-22T09:55:21;9.80;;;7.57;;
35150;SDS011;55720;51.972;4.624;2023-06-22T09:57:46;7.53;;;6.72;;
35150;SDS011;55720;51.972;4.624;2023-06-22T10:00:12;8.25;;;6.43;;
35150;SDS011;55720;51.972;4.624;2023-06-22T10:02:39;7.90;;;6.78;;
35150;SDS011;55720;51.972;4.624;2023-06-22T10:05:05;10.77;;;7.35;;
35150;SDS011;55720;51.972;4.624;2023-06-22T10:07:30;11.18;;;9.40;;
35150;SDS011;55720;51.972;4.624;2023-06-22T10:09:56;9.07;;;8.15;;
35150;SDS011;55720;51.972;4.624;2023-06-22T10:12:21;12.32;;;7.85;;
35150;SDS011;55720;51.972;4.624;2023-06-22T10:14:46;10.50;;;8.65;;
35150;SDS011;55720;51.972;4.624;2023-06-22T10:17:12;9.98;;;8.63;;
35150;SDS011;55720;51.972;4.624;2023-06-22T10:19:37;10.73;;;8.25;;
35150;SDS011;55720;51.972;4.624;2023-06-22T10:22:04;11.77;;;8.43;;
35150;SDS011;55720;51.972;4.624;2023-06-22T10:24:30;13.02;;;9.85;;
35150;SDS011;55720;51.972;4.624;2023-06-22T10:26:55;11.85;;;10.70;;
35150;SDS011;55720;51.972;4.624;2023-06-22T10:29:21;11.20;;;9.30;;
35150;SDS011;55720;51.972;4.624;2023-06-22T10:31:46;9.77;;;8.48;;
35150;SDS011;55720;51.972;4.624;2023-06-22T10:34:11;8.43;;;7.63;;
35150;SDS011;55720;51.972;4.624;2023-06-22T10:36:37;11.27;;;9.43;;
35150;SDS011;55720;51.972;4.624;2023-06-22T10:39:02;10.73;;;9.63;;
35150;SDS011;55720;51.972;4.624;2023-06-22T10:41:28;15.00;;;11.10;;
35150;SDS011;55720;51.972;4.624;2023-06-22T10:43:55;12.85;;;10.52;;
35150;SDS011;55720;51.972;4.624;2023-06-22T10:46:20;18.27;;;9.63;;
35150;SDS011;55720;51.972;4.624;2023-06-22T10:48:46;18.55;;;10.48;;
35150;SDS011;55720;51.972;4.624;2023-06-22T10:51:11;16.27;;;10.55;;
35150;SDS011;55720;51.972;4.624;2023-06-22T10:53:36;14.65;;;11.07;;
35150;SDS011;55720;51.972;4.624;2023-06-22T10:56:02;12.63;;;10.50;;
35150;SDS011;55720;51.972;4.624;2023-06-22T10:58:27;12.05;;;10.32;;
35150;SDS011;55720;51.972;4.624;2023-06-22T11:00:53;15.68;;;10.98;;
35150;SDS011;55720;51.972;4.624;2023-06-22T11:03:18;14.07;;;12.65;;
35150;SDS011;55720;51.972;4.624;2023-06-22T11:05:43;18.33;;;12.43;;
35150;SDS011;55720;51.972;4.624;2023-06-22T11:08:09;20.50;;;13.07;;
35150;SDS011;55720;51.972;4.624;2023-06-22T11:10:34;14.32;;;12.85;;
35150;SDS011;55720;51.972;4.624;2023-06-22T11:12:59;14.57;;;13.02;;
35150;SDS011;55720;51.972;4.624;2023-06-22T11:15:25;16.67;;;12.90;;
35150;SDS011;55720;51.972;4.624;2023-06-22T11:17:50;15.73;;;12.80;;
35150;SDS011;55720;51.972;4.624;2023-06-22T11:20:16;15.93;;;11.98;;
35150;SDS011;55720;51.972;4.624;2023-06-22T11:22:41;17.02;;;13.57;;
35150;SDS011;55720;51.972;4.624;2023-06-22T11:25:07;16.58;;;12.73;;
35150;SDS011;55720;51.972;4.624;2023-06-22T11:27:33;18.65;;;13.65;;
35150;SDS011;55720;51.972;4.624;2023-06-22T11:29:58;17.23;;;14.15;;
35150;SDS011;55720;51.972;4.624;2023-06-22T11:32:24;17.13;;;13.82;;
35150;SDS011;55720;51.972;4.624;2023-06-22T11:34:49;22.20;;;15.98;;
35150;SDS011;55720;51.972;4.624;2023-06-22T11:37:15;19.13;;;15.68;;
35150;SDS011;55720;51.972;4.624;2023-06-22T11:39:40;20.45;;;14.57;;
35150;SDS011;55720;51.972;4.624;2023-06-22T11:42:06;19.35;;;14.35;;
35150;SDS011;55720;51.972;4.624;2023-06-22T11:44:32;18.75;;;14.48;;
35150;SDS011;55720;51.972;4.624;2023-06-22T11:46:58;20.85;;;14.68;;
35150;SDS011;55720;51.972;4.624;2023-06-22T11:49:25;19.05;;;13.90;;
35150;SDS011;55720;51.972;4.624;2023-06-22T11:51:51;17.88;;;14.20;;
35150;SDS011;55720;51.972;4.624;2023-06-22T11:54:16;17.63;;;13.65;;
35150;SDS011;55720;51.972;4.624;2023-06-22T11:56:42;17.42;;;13.02;;
35150;SDS011;55720;51.972;4.624;2023-06-22T11:59:07;15.63;;;13.35;;
35150;SDS011;55720;51.972;4.624;2023-06-22T12:01:32;19.67;;;14.05;;
35150;SDS011;55720;51.972;4.624;2023-06-22T12:03:58;17.17;;;13.30;;
35150;SDS011;55720;51.972;4.624;2023-06-22T12:06:23;20.85;;;15.30;;
35150;SDS011;55720;51.972;4.624;2023-06-22T12:08:49;21.25;;;15.48;;
35150;SDS011;55720;51.972;4.624;2023-06-22T12:11:14;22.90;;;15.75;;
35150;SDS011;55720;51.972;4.624;2023-06-22T12:13:39;23.48;;;16.15;;
35150;SDS011;55720;51.972;4.624;2023-06-22T12:16:05;20.98;;;15.25;;
35150;SDS011;55720;51.972;4.624;2023-06-22T12:18:30;21.40;;;15.27;;
35150;SDS011;55720;51.972;4.624;2023-06-22T12:20:55;19.88;;;15.80;;
35150;SDS011;55720;51.972;4.624;2023-06-22T12:23:21;24.15;;;16.85;;
35150;SDS011;55720;51.972;4.624;2023-06-22T12:25:46;21.33;;;16.45;;
35150;SDS011;55720;51.972;4.624;2023-06-22T12:28:11;23.58;;;16.63;;
35150;SDS011;55720;51.972;4.624;2023-06-22T12:30:37;24.13;;;16.65;;
35150;SDS011;55720;51.972;4.624;2023-06-22T12:33:02;28.30;;;16.67;;
35150;SDS011;55720;51.972;4.624;2023-06-22T12:35:28;24.20;;;16.88;;
35150;SDS011;55720;51.972;4.624;2023-06-22T12:37:53;21.05;;;16.70;;
35150;SDS011;55720;51.972;4.624;2023-06-22T12:40:18;25.33;;;16.83;;
35150;SDS011;55720;51.972;4.624;2023-06-22T12:42:47;26.60;;;17.88;;
35150;SDS011;55720;51.972;4.624;2023-06-22T12:45:12;24.25;;;17.63;;
35150;SDS011;55720;51.972;4.624;2023-06-22T12:47:38;24.08;;;17.98;;
35150;SDS011;55720;51.972;4.624;2023-06-22T12:50:03;29.63;;;18.55;;
35150;SDS011;55720;51.972;4.624;2023-06-22T12:52:30;25.98;;;18.63;;
35150;SDS011;55720;51.972;4.624;2023-06-22T12:54:57;27.55;;;19.88;;
35150;SDS011;55720;51.972;4.624;2023-06-22T12:57:22;27.35;;;19.27;;
35150;SDS011;55720;51.972;4.624;2023-06-22T12:59:49;24.67;;;19.70;;
35150;SDS011;55720;51.972;4.624;2023-06-22T13:02:15;23.80;;;19.45;;
35150;SDS011;55720;51.972;4.624;2023-06-22T13:04:40;29.00;;;20.42;;
35150;SDS011;55720;51.972;4.624;2023-06-22T13:07:05;30.85;;;20.08;;
35150;SDS011;55720;51.972;4.624;2023-06-22T13:09:31;28.92;;;21.17;;
35150;SDS011;55720;51.972;4.624;2023-06-22T13:11:56;25.98;;;20.67;;
35150;SDS011;55720;51.972;4.624;2023-06-22T13:14:21;33.42;;;21.48;;
35150;SDS011;55720;51.972;4.624;2023-06-22T13:16:47;30.83;;;20.77;;
35150;SDS011;55720;51.972;4.624;2023-06-22T13:19:12;29.50;;;21.73;;
35150;SDS011;55720;51.972;4.624;2023-06-22T13:21:37;31.35;;;21.75;;
35150;SDS011;55720;51.972;4.624;2023-06-22T13:24:03;34.83;;;23.70;;
35150;SDS011;55720;51.972;4.624;2023-06-22T13:26:31;35.05;;;24.33;;
35150;SDS011;55720;51.972;4.624;2023-06-22T13:28:56;32.67;;;24.23;;
35150;SDS011;55720;51.972;4.624;2023-06-22T13:31:22;35.33;;;23.92;;
35150;SDS011;55720;51.972;4.624;2023-06-22T13:33:47;36.53;;;25.23;;
35150;SDS011;55720;51.972;4.624;2023-06-22T13:36:13;35.33;;;24.42;;
35150;SDS011;55720;51.972;4.624;2023-06-22T13:38:39;39.28;;;25.83;;
35150;SDS011;55720;51.972;4.624;2023-06-22T13:41:05;41.42;;;25.13;;
35150;SDS011;55720;51.972;4.624;2023-06-22T13:43:30;34.75;;;24.92;;
35150;SDS011;55720;51.972;4.624;2023-06-22T13:45:56;33.38;;;24.20;;
35150;SDS011;55720;51.972;4.624;2023-06-22T13:48:23;35.22;;;23.73;;
35150;SDS011;55720;51.972;4.624;2023-06-22T13:50:50;35.53;;;24.08;;
35150;SDS011;55720;51.972;4.624;2023-06-22T13:53:16;37.75;;;25.60;;
35150;SDS011;55720;51.972;4.624;2023-06-22T13:55:41;42.80;;;25.27;;
35150;SDS011;55720;51.972;4.624;2023-06-22T13:58:07;38.28;;;25.95;;
35150;SDS011;55720;51.972;4.624;2023-06-22T14:00:32;38.25;;;25.70;;
35150;SDS011;55720;51.972;4.624;2023-06-22T14:02:58;43.03;;;28.40;;
35150;SDS011;55720;51.972;4.624;2023-06-22T14:05:23;41.35;;;28.80;;
35150;SDS011;55720;51.972;4.624;2023-06-22T14:07:48;46.85;;;31.02;;
35150;SDS011;55720;51.972;4.624;2023-06-22T14:10:14;45.88;;;29.73;;
35150;SDS011;55720;51.972;4.624;2023-06-22T14:12:39;44.95;;;29.98;;
35150;SDS011;55720;51.972;4.624;2023-06-22T14:15:04;42.38;;;30.50;;
35150;SDS011;55720;51.972;4.624;2023-06-22T14:17:30;47.88;;;29.63;;
35150;SDS011;55720;51.972;4.624;2023-06-22T14:19:55;41.25;;;28.27;;
35150;SDS011;55720;51.972;4.624;2023-06-22T14:22:21;44.70;;;28.95;;
35150;SDS011;55720;51.972;4.624;2023-06-22T14:24:47;42.97;;;29.88;;
35150;SDS011;55720;51.972;4.624;2023-06-22T14:27:13;44.13;;;28.17;;
35150;SDS011;55720;51.972;4.624;2023-06-22T14:29:39;32.75;;;24.17;;